sensor_id;sensor_type;location;lat;lon;timestamp;temperature;humidity
26757;DHT22;23848;49.798;10.228;2023-04-24T00:02:05;11.60;99.90
26757;DHT22;23848;49.798;10.228;2023-04-24T00:04:38;11.60;99.90
26757;DHT22;23848;49.798;10.228;2023-04-24T00:07:08;11.60;99.90
26757;DHT22;23848;49.798;10.228;2023-04-24T00:09:36;11.60;99.90
26757;DHT22;23848;49.798;10.228;2023-04-24T00:12:05;11.60;99.90
26757;DHT22;23848;49.798;10.228;2023-04-24T00:14:35;11.60;99.90
26757;DHT22;23848;49.798;10.228;2023-04-24T00:17:05;11.60;99.90
26757;DHT22;23848;49.798;10.228;2023-04-24T00:19:34;11.60;99.90
26757;DHT22;23848;49.798;10.228;2023-04-24T00:22:04;11.50;99.90
26757;DHT22;23848;49.798;10.228;2023-04-24T00:24:33;11.50;99.90
26757;DHT22;23848;49.798;10.228;2023-04-24T00:27:01;11.60;99.90
26757;DHT22;23848;49.798;10.228;2023-04-24T00:29:30;11.50;99.90
26757;DHT22;23848;49.798;10.228;2023-04-24T00:32:00;11.50;99.90
26757;DHT22;23848;49.798;10.228;2023-04-24T00:34:28;11.50;99.90
26757;DHT22;23848;49.798;10.228;2023-04-24T00:36:57;11.60;99.90
26757;DHT22;23848;49.798;10.228;2023-04-24T00:39:25;11.50;99.90
26757;DHT22;23848;49.798;10.228;2023-04-24T00:41:53;11.60;99.90
26757;DHT22;23848;49.798;10.228;2023-04-24T00:44:22;11.60;99.90
26757;DHT22;23848;49.798;10.228;2023-04-24T00:46:51;11.50;99.90
26757;DHT22;23848;49.798;10.228;2023-04-24T00:49:23;11.50;99.90
26757;DHT22;23848;49.798;10.228;2023-04-24T00:51:54;11.50;99.90
26757;DHT22;23848;49.798;10.228;2023-04-24T00:54:24;11.50;99.90
26757;DHT22;23848;49.798;10.228;2023-04-24T00:56:52;11.60;99.90
26757;DHT22;23848;49.798;10.228;2023-04-24T00:59:21;11.60;99.90
26757;DHT22;23848;49.798;10.228;2023-04-24T01:01:49;11.60;99.90
26757;DHT22;23848;49.798;10.228;2023-04-24T01:04:28;11.60;99.90
26757;DHT22;23848;49.798;10.228;2023-04-24T01:06:59;11.60;99.90
26757;DHT22;23848;49.798;10.228;2023-04-24T01:09:28;11.60;99.90
26757;DHT22;23848;49.798;10.228;2023-04-24T01:11:58;11.60;99.90
26757;DHT22;23848;49.798;10.228;2023-04-24T01:14:28;11.60;99.90
26757;DHT22;23848;49.798;10.228;2023-04-24T01:16:57;11.60;99.90
26757;DHT22;23848;49.798;10.228;2023-04-24T01:19:29;11.60;99.90
26757;DHT22;23848;49.798;10.228;2023-04-24T01:22:08;11.70;99.90
26757;DHT22;23848;49.798;10.228;2023-04-24T01:24:37;11.60;99.90
26757;DHT22;23848;49.798;10.228;2023-04-24T01:27:09;11.60;99.90
26757;DHT22;23848;49.798;10.228;2023-04-24T01:29:38;11.60;99.90
26757;DHT22;23848;49.798;10.228;2023-04-24T01:32:09;11.50;99.90
26757;DHT22;23848;49.798;10.228;2023-04-24T01:34:51;11.50;99.90
26757;DHT22;23848;49.798;10.228;2023-04-24T01:37:21;11.50;99.90
26757;DHT22;23848;49.798;10.228;2023-04-24T01:39:50;11.50;99.90
26757;DHT22;23848;49.798;10.228;2023-04-24T01:42:18;11.50;99.90
26757;DHT22;23848;49.798;10.228;2023-04-24T01:44:53;11.40;99.90
26757;DHT22;23848;49.798;10.228;2023-04-24T01:47:22;11.40;99.90
26757;DHT22;23848;49.798;10.228;2023-04-24T01:49:50;11.40;99.90
26757;DHT22;23848;49.798;10.228;2023-04-24T01:52:21;11.40;99.90
26757;DHT22;23848;49.798;10.228;2023-04-24T01:54:53;11.40;99.90
26757;DHT22;23848;49.798;10.228;2023-04-24T01:57:23;11.40;99.90
26757;DHT22;23848;49.798;10.228;2023-04-24T01:59:51;11.40;99.90
26757;DHT22;23848;49.798;10.228;2023-04-24T02:02:20;11.40;99.90
26757;DHT22;23848;49.798;10.228;2023-04-24T02:04:57;11.40;99.90
26757;DHT22;23848;49.798;10.228;2023-04-24T02:07:27;11.40;99.90
26757;DHT22;23848;49.798;10.228;2023-04-24T02:09:55;11.40;99.90
26757;DHT22;23848;49.798;10.228;2023-04-24T02:12:24;11.40;99.90
26757;DHT22;23848;49.798;10.228;2023-04-24T02:14:52;11.40;99.90
26757;DHT22;23848;49.798;10.228;2023-04-24T02:17:22;11.40;99.90
26757;DHT22;23848;49.798;10.228;2023-04-24T02:19:52;11.40;99.90
26757;DHT22;23848;49.798;10.228;2023-04-24T02:22:27;11.40;99.90
26757;DHT22;23848;49.798;10.228;2023-04-24T02:24:56;11.40;99.90
26757;DHT22;23848;49.798;10.228;2023-04-24T02:27:24;11.40;99.90
26757;DHT22;23848;49.798;10.228;2023-04-24T02:29:55;11.40;99.90
26757;DHT22;23848;49.798;10.228;2023-04-24T02:32:24;11.30;99.90
26757;DHT22;23848;49.798;10.228;2023-04-24T02:34:52;11.40;99.90
26757;DHT22;23848;49.798;10.228;2023-04-24T02:37:23;11.40;99.90
26757;DHT22;23848;49.798;10.228;2023-04-24T02:39:53;11.40;99.90
26757;DHT22;23848;49.798;10.228;2023-04-24T02:42:22;11.30;99.90
26757;DHT22;23848;49.798;10.228;2023-04-24T02:44:52;11.30;99.90
26757;DHT22;23848;49.798;10.228;2023-04-24T02:47:20;11.30;99.90
26757;DHT22;23848;49.798;10.228;2023-04-24T02:49:53;11.30;99.90
26757;DHT22;23848;49.798;10.228;2023-04-24T02:52:21;11.30;99.90
26757;DHT22;23848;49.798;10.228;2023-04-24T02:54:50;11.30;99.90
26757;DHT22;23848;49.798;10.228;2023-04-24T02:57:20;11.30;99.90
26757;DHT22;23848;49.798;10.228;2023-04-24T02:59:48;11.20;99.90
26757;DHT22;23848;49.798;10.228;2023-04-24T03:02:17;11.20;99.90
26757;DHT22;23848;49.798;10.228;2023-04-24T03:04:50;11.10;99.90
26757;DHT22;23848;49.798;10.228;2023-04-24T03:07:20;11.10;99.90
26757;DHT22;23848;49.798;10.228;2023-04-24T03:09:50;11.00;99.90
26757;DHT22;23848;49.798;10.228;2023-04-24T03:12:21;11.00;99.90
26757;DHT22;23848;49.798;10.228;2023-04-24T03:15:05;11.00;99.90
26757;DHT22;23848;49.798;10.228;2023-04-24T03:17:34;11.00;99.90
26757;DHT22;23848;49.798;10.228;2023-04-24T03:20:04;10.90;99.90
26757;DHT22;23848;49.798;10.228;2023-04-24T03:22:39;10.90;99.90
26757;DHT22;23848;49.798;10.228;2023-04-24T03:25:11;10.90;99.90
26757;DHT22;23848;49.798;10.228;2023-04-24T03:27:43;10.90;99.90
26757;DHT22;23848;49.798;10.228;2023-04-24T03:30:23;10.90;99.90
26757;DHT22;23848;49.798;10.228;2023-04-24T03:32:51;10.80;99.90
26757;DHT22;23848;49.798;10.228;2023-04-24T03:35:20;10.80;99.90
26757;DHT22;23848;49.798;10.228;2023-04-24T03:37:49;10.80;99.90
26757;DHT22;23848;49.798;10.228;2023-04-24T03:40:17;10.80;99.90
26757;DHT22;23848;49.798;10.228;2023-04-24T03:42:47;10.80;99.90
26757;DHT22;23848;49.798;10.228;2023-04-24T03:45:16;10.80;99.90
26757;DHT22;23848;49.798;10.228;2023-04-24T03:47:46;10.80;99.90
26757;DHT22;23848;49.798;10.228;2023-04-24T03:50:15;10.70;99.90
26757;DHT22;23848;49.798;10.228;2023-04-24T03:52:45;10.70;99.90
26757;DHT22;23848;49.798;10.228;2023-04-24T03:55:13;10.60;99.90
26757;DHT22;23848;49.798;10.228;2023-04-24T03:57:42;10.70;99.90
26757;DHT22;23848;49.798;10.228;2023-04-24T04:00:14;10.70;99.90
26757;DHT22;23848;49.798;10.228;2023-04-24T04:02:42;10.70;99.90
26757;DHT22;23848;49.798;10.228;2023-04-24T04:05:25;10.70;99.90
26757;DHT22;23848;49.798;10.228;2023-04-24T04:07:54;10.60;99.90
26757;DHT22;23848;49.798;10.228;2023-04-24T04:10:24;10.60;99.90
26757;DHT22;23848;49.798;10.228;2023-04-24T04:12:53;10.60;99.90
26757;DHT22;23848;49.798;10.228;2023-04-24T04:15:26;10.50;99.90
26757;DHT22;23848;49.798;10.228;2023-04-24T04:17:55;10.50;99.90
26757;DHT22;23848;49.798;10.228;2023-04-24T04:20:27;10.50;99.90
26757;DHT22;23848;49.798;10.228;2023-04-24T04:22:55;10.50;99.90
26757;DHT22;23848;49.798;10.228;2023-04-24T04:25:29;10.40;99.90
26757;DHT22;23848;49.798;10.228;2023-04-24T04:28:02;10.40;99.90
26757;DHT22;23848;49.798;10.228;2023-04-24T04:30:33;10.40;99.90
26757;DHT22;23848;49.798;10.228;2023-04-24T04:33:09;10.30;99.90
26757;DHT22;23848;49.798;10.228;2023-04-24T04:35:39;10.30;99.90
26757;DHT22;23848;49.798;10.228;2023-04-24T04:38:10;10.30;99.90
26757;DHT22;23848;49.798;10.228;2023-04-24T04:40:39;10.30;99.90
26757;DHT22;23848;49.798;10.228;2023-04-24T04:43:14;10.30;99.90
26757;DHT22;23848;49.798;10.228;2023-04-24T04:45:49;10.30;99.90
26757;DHT22;23848;49.798;10.228;2023-04-24T04:48:29;10.30;99.90
26757;DHT22;23848;49.798;10.228;2023-04-24T04:51:11;10.30;99.90
26757;DHT22;23848;49.798;10.228;2023-04-24T04:53:40;10.30;99.90
26757;DHT22;23848;49.798;10.228;2023-04-24T04:56:18;10.30;99.90
26757;DHT22;23848;49.798;10.228;2023-04-24T04:58:49;10.40;99.90
26757;DHT22;23848;49.798;10.228;2023-04-24T05:01:19;10.40;99.90
26757;DHT22;23848;49.798;10.228;2023-04-24T05:03:53;10.40;99.90
26757;DHT22;23848;49.798;10.228;2023-04-24T05:06:25;10.40;99.90
26757;DHT22;23848;49.798;10.228;2023-04-24T05:08:54;10.40;99.90
26757;DHT22;23848;49.798;10.228;2023-04-24T05:11:24;10.40;99.90
26757;DHT22;23848;49.798;10.228;2023-04-24T05:13:53;10.40;99.90
26757;DHT22;23848;49.798;10.228;2023-04-24T05:16:24;10.50;99.90
26757;DHT22;23848;49.798;10.228;2023-04-24T05:18:53;10.50;99.90
26757;DHT22;23848;49.798;10.228;2023-04-24T05:21:21;10.50;99.90
26757;DHT22;23848;49.798;10.228;2023-04-24T05:23:50;10.50;99.90
26757;DHT22;23848;49.798;10.228;2023-04-24T05:26:22;10.50;99.90
26757;DHT22;23848;49.798;10.228;2023-04-24T05:28:55;10.50;99.90
26757;DHT22;23848;49.798;10.228;2023-04-24T05:31:25;10.60;99.90
26757;DHT22;23848;49.798;10.228;2023-04-24T05:33:59;10.60;99.90
26757;DHT22;23848;49.798;10.228;2023-04-24T05:36:30;10.60;99.90
26757;DHT22;23848;49.798;10.228;2023-04-24T05:39:04;10.60;99.90
26757;DHT22;23848;49.798;10.228;2023-04-24T05:41:37;10.60;99.90
26757;DHT22;23848;49.798;10.228;2023-04-24T05:44:09;10.60;99.90
26757;DHT22;23848;49.798;10.228;2023-04-24T05:46:39;10.70;99.90
26757;DHT22;23848;49.798;10.228;2023-04-24T05:49:07;10.70;99.90
26757;DHT22;23848;49.798;10.228;2023-04-24T05:51:39;10.60;99.90
26757;DHT22;23848;49.798;10.228;2023-04-24T05:54:09;10.70;99.90
26757;DHT22;23848;49.798;10.228;2023-04-24T05:56:39;10.60;99.90
26757;DHT22;23848;49.798;10.228;2023-04-24T05:59:09;10.70;99.90
26757;DHT22;23848;49.798;10.228;2023-04-24T06:01:39;10.70;99.90
26757;DHT22;23848;49.798;10.228;2023-04-24T06:04:07;10.80;99.90
26757;DHT22;23848;49.798;10.228;2023-04-24T06:06:36;10.90;99.90
26757;DHT22;23848;49.798;10.228;2023-04-24T06:09:04;10.90;99.90
26757;DHT22;23848;49.798;10.228;2023-04-24T06:11:33;10.90;99.90
26757;DHT22;23848;49.798;10.228;2023-04-24T06:14:01;10.90;99.90
26757;DHT22;23848;49.798;10.228;2023-04-24T06:16:32;10.90;99.90
26757;DHT22;23848;49.798;10.228;2023-04-24T06:19:03;10.90;99.90
26757;DHT22;23848;49.798;10.228;2023-04-24T06:21:31;10.90;99.90
26757;DHT22;23848;49.798;10.228;2023-04-24T06:24:01;10.90;99.90
26757;DHT22;23848;49.798;10.228;2023-04-24T06:26:31;10.80;99.90
26757;DHT22;23848;49.798;10.228;2023-04-24T06:28:59;10.80;99.90
26757;DHT22;23848;49.798;10.228;2023-04-24T06:31:27;10.70;99.90
26757;DHT22;23848;49.798;10.228;2023-04-24T06:33:56;10.80;99.90
26757;DHT22;23848;49.798;10.228;2023-04-24T06:36:26;10.80;99.90
26757;DHT22;23848;49.798;10.228;2023-04-24T06:38:55;11.00;99.90
26757;DHT22;23848;49.798;10.228;2023-04-24T06:41:28;11.10;99.90
26757;DHT22;23848;49.798;10.228;2023-04-24T06:43:56;11.20;99.90
26757;DHT22;23848;49.798;10.228;2023-04-24T06:46:42;11.30;99.90
26757;DHT22;23848;49.798;10.228;2023-04-24T06:49:11;11.40;99.90
26757;DHT22;23848;49.798;10.228;2023-04-24T06:51:44;11.30;99.90
26757;DHT22;23848;49.798;10.228;2023-04-24T06:54:13;11.40;99.90
26757;DHT22;23848;49.798;10.228;2023-04-24T06:56:41;11.40;99.90
26757;DHT22;23848;49.798;10.228;2023-04-24T06:59:09;11.50;99.90
26757;DHT22;23848;49.798;10.228;2023-04-24T07:01:38;11.60;99.90
26757;DHT22;23848;49.798;10.228;2023-04-24T07:04:06;11.60;99.90
26757;DHT22;23848;49.798;10.228;2023-04-24T07:06:35;11.50;99.90
26757;DHT22;23848;49.798;10.228;2023-04-24T07:09:07;11.50;99.90
26757;DHT22;23848;49.798;10.228;2023-04-24T07:11:42;11.50;99.90
26757;DHT22;23848;49.798;10.228;2023-04-24T07:14:11;11.60;99.90
26757;DHT22;23848;49.798;10.228;2023-04-24T07:16:45;11.60;99.90
26757;DHT22;23848;49.798;10.228;2023-04-24T07:19:19;11.70;99.90
26757;DHT22;23848;49.798;10.228;2023-04-24T07:21:48;11.70;99.90
26757;DHT22;23848;49.798;10.228;2023-04-24T07:24:31;11.80;99.90
26757;DHT22;23848;49.798;10.228;2023-04-24T07:27:05;11.80;99.90
26757;DHT22;23848;49.798;10.228;2023-04-24T07:29:35;11.80;99.90
26757;DHT22;23848;49.798;10.228;2023-04-24T07:32:07;11.80;99.90
26757;DHT22;23848;49.798;10.228;2023-04-24T07:34:49;11.90;99.90
26757;DHT22;23848;49.798;10.228;2023-04-24T07:37:21;11.80;99.90
26757;DHT22;23848;49.798;10.228;2023-04-24T07:39:52;11.80;99.90
26757;DHT22;23848;49.798;10.228;2023-04-24T07:42:26;11.90;99.90
26757;DHT22;23848;49.798;10.228;2023-04-24T07:45:13;12.00;99.90
26757;DHT22;23848;49.798;10.228;2023-04-24T07:47:44;12.00;99.90
26757;DHT22;23848;49.798;10.228;2023-04-24T07:50:15;12.10;99.90
26757;DHT22;23848;49.798;10.228;2023-04-24T07:52:53;12.20;99.90
26757;DHT22;23848;49.798;10.228;2023-04-24T07:56:00;12.30;99.90
26757;DHT22;23848;49.798;10.228;2023-04-24T07:58:53;12.50;99.90
26757;DHT22;23848;49.798;10.228;2023-04-24T08:01:21;12.50;99.90
26757;DHT22;23848;49.798;10.228;2023-04-24T08:03:56;12.40;99.90
26757;DHT22;23848;49.798;10.228;2023-04-24T08:07:49;12.40;99.90
26757;DHT22;23848;49.798;10.228;2023-04-24T08:10:35;12.30;99.90
26757;DHT22;23848;49.798;10.228;2023-04-24T08:13:29;12.40;99.90
26757;DHT22;23848;49.798;10.228;2023-04-24T08:16:34;12.30;99.90
26757;DHT22;23848;49.798;10.228;2023-04-24T08:19:05;12.40;99.90
26757;DHT22;23848;49.798;10.228;2023-04-24T08:24:36;12.60;99.90
26757;DHT22;23848;49.798;10.228;2023-04-24T08:27:05;12.60;99.90
26757;DHT22;23848;49.798;10.228;2023-04-24T08:29:47;12.70;99.90
26757;DHT22;23848;49.798;10.228;2023-04-24T08:32:20;12.70;99.90
26757;DHT22;23848;49.798;10.228;2023-04-24T08:35:07;12.70;99.90
26757;DHT22;23848;49.798;10.228;2023-04-24T08:37:38;12.70;99.90
26757;DHT22;23848;49.798;10.228;2023-04-24T08:40:27;12.60;99.90
26757;DHT22;23848;49.798;10.228;2023-04-24T08:42:57;12.50;99.90
26757;DHT22;23848;49.798;10.228;2023-04-24T08:45:45;12.40;99.90
26757;DHT22;23848;49.798;10.228;2023-04-24T08:48:41;12.40;99.90
26757;DHT22;23848;49.798;10.228;2023-04-24T08:51:11;12.30;99.90
26757;DHT22;23848;49.798;10.228;2023-04-24T08:53:46;12.30;99.90
26757;DHT22;23848;49.798;10.228;2023-04-24T08:56:17;12.30;99.90
26757;DHT22;23848;49.798;10.228;2023-04-24T08:58:50;12.30;99.90
26757;DHT22;23848;49.798;10.228;2023-04-24T09:01:25;12.40;99.90
26757;DHT22;23848;49.798;10.228;2023-04-24T09:04:10;12.50;99.90
26757;DHT22;23848;49.798;10.228;2023-04-24T09:06:42;12.70;99.90
26757;DHT22;23848;49.798;10.228;2023-04-24T09:09:16;12.90;99.90
26757;DHT22;23848;49.798;10.228;2023-04-24T09:11:46;13.00;99.90
26757;DHT22;23848;49.798;10.228;2023-04-24T09:14:35;13.00;99.90
26757;DHT22;23848;49.798;10.228;2023-04-24T09:17:26;12.90;99.90
26757;DHT22;23848;49.798;10.228;2023-04-24T09:19:59;12.80;99.90
26757;DHT22;23848;49.798;10.228;2023-04-24T09:25:21;12.50;99.90
26757;DHT22;23848;49.798;10.228;2023-04-24T09:28:07;12.60;99.90
26757;DHT22;23848;49.798;10.228;2023-04-24T09:31:16;12.70;99.90
26757;DHT22;23848;49.798;10.228;2023-04-24T09:34:08;12.70;99.90
26757;DHT22;23848;49.798;10.228;2023-04-24T09:37:10;12.60;99.90
26757;DHT22;23848;49.798;10.228;2023-04-24T09:39:44;12.60;99.90
26757;DHT22;23848;49.798;10.228;2023-04-24T09:42:21;12.70;99.90
26757;DHT22;23848;49.798;10.228;2023-04-24T09:49:12;13.10;99.90
26757;DHT22;23848;49.798;10.228;2023-04-24T09:55:23;13.30;99.90
26757;DHT22;23848;49.798;10.228;2023-04-24T09:58:17;13.40;99.90
26757;DHT22;23848;49.798;10.228;2023-04-24T10:01:20;13.60;99.90
26757;DHT22;23848;49.798;10.228;2023-04-24T10:08:24;14.00;99.90
26757;DHT22;23848;49.798;10.228;2023-04-24T10:11:50;14.00;99.90
26757;DHT22;23848;49.798;10.228;2023-04-24T10:15:00;14.00;99.90
26757;DHT22;23848;49.798;10.228;2023-04-24T10:18:06;14.00;99.90
26757;DHT22;23848;49.798;10.228;2023-04-24T10:24:15;14.30;99.90
26757;DHT22;23848;49.798;10.228;2023-04-24T10:26:52;14.30;99.90
26757;DHT22;23848;49.798;10.228;2023-04-24T10:30:00;14.50;99.90
26757;DHT22;23848;49.798;10.228;2023-04-24T10:34:05;14.40;99.90
26757;DHT22;23848;49.798;10.228;2023-04-24T10:36:53;14.20;99.90
26757;DHT22;23848;49.798;10.228;2023-04-24T10:39:42;13.90;99.90
26757;DHT22;23848;49.798;10.228;2023-04-24T10:42:43;13.90;99.90
26757;DHT22;23848;49.798;10.228;2023-04-24T10:46:07;14.10;99.90
26757;DHT22;23848;49.798;10.228;2023-04-24T10:49:14;14.20;99.90
26757;DHT22;23848;49.798;10.228;2023-04-24T10:51:49;14.30;99.90
26757;DHT22;23848;49.798;10.228;2023-04-24T11:08:52;13.80;99.90
26757;DHT22;23848;49.798;10.228;2023-04-24T11:12:11;13.70;99.90
26757;DHT22;23848;49.798;10.228;2023-04-24T11:15:34;13.50;99.90
26757;DHT22;23848;49.798;10.228;2023-04-24T11:19:33;13.40;99.90
26757;DHT22;23848;49.798;10.228;2023-04-24T11:22:28;13.10;99.90
26757;DHT22;23848;49.798;10.228;2023-04-24T11:25:11;12.90;99.90
26757;DHT22;23848;49.798;10.228;2023-04-24T11:28:11;12.80;99.90
26757;DHT22;23848;49.798;10.228;2023-04-24T11:31:38;12.80;99.90
26757;DHT22;23848;49.798;10.228;2023-04-24T11:34:26;13.00;99.90
26757;DHT22;23848;49.798;10.228;2023-04-24T11:37:44;13.20;99.90
26757;DHT22;23848;49.798;10.228;2023-04-24T11:41:20;13.20;99.90
26757;DHT22;23848;49.798;10.228;2023-04-24T11:44:18;13.10;99.90
26757;DHT22;23848;49.798;10.228;2023-04-24T11:47:47;12.90;99.90
26757;DHT22;23848;49.798;10.228;2023-04-24T11:50:31;12.90;99.90
26757;DHT22;23848;49.798;10.228;2023-04-24T11:53:34;12.70;99.90
26757;DHT22;23848;49.798;10.228;2023-04-24T11:59:43;12.70;99.90
26757;DHT22;23848;49.798;10.228;2023-04-24T12:02:23;12.80;99.90
26757;DHT22;23848;49.798;10.228;2023-04-24T12:08:45;12.70;99.90
26757;DHT22;23848;49.798;10.228;2023-04-24T12:12:12;12.70;99.90
26757;DHT22;23848;49.798;10.228;2023-04-24T12:15:39;12.80;99.90
26757;DHT22;23848;49.798;10.228;2023-04-24T12:19:10;13.00;99.90
26757;DHT22;23848;49.798;10.228;2023-04-24T12:22:05;12.90;99.90
26757;DHT22;23848;49.798;10.228;2023-04-24T12:24:57;12.80;99.90
26757;DHT22;23848;49.798;10.228;2023-04-24T12:28:12;12.80;99.90
26757;DHT22;23848;49.798;10.228;2023-04-24T12:31:17;12.90;99.90
26757;DHT22;23848;49.798;10.228;2023-04-24T12:34:32;13.00;99.90
26757;DHT22;23848;49.798;10.228;2023-04-24T12:37:59;13.20;99.90
26757;DHT22;23848;49.798;10.228;2023-04-24T12:41:11;13.50;99.90
26757;DHT22;23848;49.798;10.228;2023-04-24T12:44:31;13.50;99.90
26757;DHT22;23848;49.798;10.228;2023-04-24T12:47:46;13.50;99.90
26757;DHT22;23848;49.798;10.228;2023-04-24T12:50:58;13.40;99.90
26757;DHT22;23848;49.798;10.228;2023-04-24T12:54:01;13.50;99.90
26757;DHT22;23848;49.798;10.228;2023-04-24T12:57:19;13.50;99.90
26757;DHT22;23848;49.798;10.228;2023-04-24T13:00:48;13.50;99.90
26757;DHT22;23848;49.798;10.228;2023-04-24T13:04:09;13.60;99.90
26757;DHT22;23848;49.798;10.228;2023-04-24T13:10:24;13.70;99.90
26757;DHT22;23848;49.798;10.228;2023-04-24T13:13:36;14.00;99.90
26757;DHT22;23848;49.798;10.228;2023-04-24T13:19:54;13.70;99.90
26757;DHT22;23848;49.798;10.228;2023-04-24T13:22:37;13.60;99.90
26757;DHT22;23848;49.798;10.228;2023-04-24T13:25:23;13.50;99.90
26757;DHT22;23848;49.798;10.228;2023-04-24T13:32:06;13.30;99.90
26757;DHT22;23848;49.798;10.228;2023-04-24T13:35:16;13.20;99.90
26757;DHT22;23848;49.798;10.228;2023-04-24T13:38:03;13.10;99.90
26757;DHT22;23848;49.798;10.228;2023-04-24T13:41:03;13.00;99.90
26757;DHT22;23848;49.798;10.228;2023-04-24T13:43:51;13.00;99.90
26757;DHT22;23848;49.798;10.228;2023-04-24T13:46:42;13.10;99.90
26757;DHT22;23848;49.798;10.228;2023-04-24T13:49:14;13.30;99.90
26757;DHT22;23848;49.798;10.228;2023-04-24T13:52:13;13.40;99.90
26757;DHT22;23848;49.798;10.228;2023-04-24T13:55:04;13.60;99.90
26757;DHT22;23848;49.798;10.228;2023-04-24T13:58:07;13.50;99.90
26757;DHT22;23848;49.798;10.228;2023-04-24T14:00:58;13.50;99.90
26757;DHT22;23848;49.798;10.228;2023-04-24T14:03:52;13.70;99.90
26757;DHT22;23848;49.798;10.228;2023-04-24T14:06:37;13.70;99.90
26757;DHT22;23848;49.798;10.228;2023-04-24T14:09:39;13.70;99.90
26757;DHT22;23848;49.798;10.228;2023-04-24T14:12:17;13.70;99.90
26757;DHT22;23848;49.798;10.228;2023-04-24T14:15:23;13.70;99.90
26757;DHT22;23848;49.798;10.228;2023-04-24T14:18:50;13.70;99.90
26757;DHT22;23848;49.798;10.228;2023-04-24T14:21:32;13.60;99.90
26757;DHT22;23848;49.798;10.228;2023-04-24T14:24:15;13.40;99.90
26757;DHT22;23848;49.798;10.228;2023-04-24T14:26:57;13.20;99.90
26757;DHT22;23848;49.798;10.228;2023-04-24T14:30:07;13.10;99.90
26757;DHT22;23848;49.798;10.228;2023-04-24T14:32:53;12.80;99.90
26757;DHT22;23848;49.798;10.228;2023-04-24T14:57:40;13.30;99.90
26757;DHT22;23848;49.798;10.228;2023-04-24T15:07:36;14.20;99.90
26757;DHT22;23848;49.798;10.228;2023-04-24T15:10:21;13.90;99.90
26757;DHT22;23848;49.798;10.228;2023-04-24T15:13:27;13.70;99.90
26757;DHT22;23848;49.798;10.228;2023-04-24T15:16:27;13.30;99.90
26757;DHT22;23848;49.798;10.228;2023-04-24T15:19:56;13.00;99.90
26757;DHT22;23848;49.798;10.228;2023-04-24T15:25:07;12.60;99.90
26757;DHT22;23848;49.798;10.228;2023-04-24T15:31:29;12.50;99.90
26757;DHT22;23848;49.798;10.228;2023-04-24T15:37:50;14.00;99.90
26757;DHT22;23848;49.798;10.228;2023-04-24T15:40:25;14.30;99.90
26757;DHT22;23848;49.798;10.228;2023-04-24T15:43:04;14.70;99.90
26757;DHT22;23848;49.798;10.228;2023-04-24T15:45:39;15.10;99.90
26757;DHT22;23848;49.798;10.228;2023-04-24T15:48:18;15.20;99.90
26757;DHT22;23848;49.798;10.228;2023-04-24T15:50:55;15.20;99.90
26757;DHT22;23848;49.798;10.228;2023-04-24T15:53:48;15.00;99.90
26757;DHT22;23848;49.798;10.228;2023-04-24T15:56:31;14.80;99.90
26757;DHT22;23848;49.798;10.228;2023-04-24T15:59:06;15.10;99.90
26757;DHT22;23848;49.798;10.228;2023-04-24T16:02:10;15.30;99.90
26757;DHT22;23848;49.798;10.228;2023-04-24T16:12:27;14.60;99.90
26757;DHT22;23848;49.798;10.228;2023-04-24T16:38:42;14.70;99.90
26757;DHT22;23848;49.798;10.228;2023-04-24T16:41:48;14.70;99.90
26757;DHT22;23848;49.798;10.228;2023-04-24T16:49:01;14.30;99.90
26757;DHT22;23848;49.798;10.228;2023-04-24T16:51:51;14.00;99.90
26757;DHT22;23848;49.798;10.228;2023-04-24T16:54:38;13.90;99.90
26757;DHT22;23848;49.798;10.228;2023-04-24T16:57:14;13.80;99.90
26757;DHT22;23848;49.798;10.228;2023-04-24T16:59:45;13.70;99.90
26757;DHT22;23848;49.798;10.228;2023-04-24T17:02:30;13.70;99.90
26757;DHT22;23848;49.798;10.228;2023-04-24T17:12:32;13.30;99.90
26757;DHT22;23848;49.798;10.228;2023-04-24T17:17:13;13.20;99.90
26757;DHT22;23848;49.798;10.228;2023-04-24T17:18:39;13.10;99.90
26757;DHT22;23848;49.798;10.228;2023-04-24T17:21:20;13.10;99.90
26757;DHT22;23848;49.798;10.228;2023-04-24T17:24:05;13.10;99.90
26757;DHT22;23848;49.798;10.228;2023-04-24T17:26:48;12.90;99.90
26757;DHT22;23848;49.798;10.228;2023-04-24T17:30:04;12.90;99.90
26757;DHT22;23848;49.798;10.228;2023-04-24T17:32:36;12.90;99.90
26757;DHT22;23848;49.798;10.228;2023-04-24T17:35:31;12.70;99.90
26757;DHT22;23848;49.798;10.228;2023-04-24T17:38:27;12.60;99.90
26757;DHT22;23848;49.798;10.228;2023-04-24T17:41:46;12.60;99.90
26757;DHT22;23848;49.798;10.228;2023-04-24T17:48:43;12.30;99.90
26757;DHT22;23848;49.798;10.228;2023-04-24T17:51:52;12.20;99.90
26757;DHT22;23848;49.798;10.228;2023-04-24T17:54:26;12.10;99.90
26757;DHT22;23848;49.798;10.228;2023-04-24T17:57:04;12.00;99.90
26757;DHT22;23848;49.798;10.228;2023-04-24T17:59:42;12.00;99.90
26757;DHT22;23848;49.798;10.228;2023-04-24T18:04:54;11.80;99.90
26757;DHT22;23848;49.798;10.228;2023-04-24T18:07:54;11.70;99.90
26757;DHT22;23848;49.798;10.228;2023-04-24T18:10:38;11.60;99.90
26757;DHT22;23848;49.798;10.228;2023-04-24T18:13:13;11.50;99.90
26757;DHT22;23848;49.798;10.228;2023-04-24T18:15:57;11.40;99.90
26757;DHT22;23848;49.798;10.228;2023-04-24T18:18:36;11.30;99.90
26757;DHT22;23848;49.798;10.228;2023-04-24T18:21:15;11.30;99.90
26757;DHT22;23848;49.798;10.228;2023-04-24T18:23:51;11.20;99.90
26757;DHT22;23848;49.798;10.228;2023-04-24T18:26:22;11.10;99.90
26757;DHT22;23848;49.798;10.228;2023-04-24T18:29:02;11.10;99.90
26757;DHT22;23848;49.798;10.228;2023-04-24T18:31:44;11.10;99.90
26757;DHT22;23848;49.798;10.228;2023-04-24T18:34:13;11.00;99.90
26757;DHT22;23848;49.798;10.228;2023-04-24T18:36:44;11.00;99.90
26757;DHT22;23848;49.798;10.228;2023-04-24T18:39:13;10.90;99.90
26757;DHT22;23848;49.798;10.228;2023-04-24T18:41:50;10.90;99.90
26757;DHT22;23848;49.798;10.228;2023-04-24T18:44:32;10.80;99.90
26757;DHT22;23848;49.798;10.228;2023-04-24T18:47:10;10.80;99.90
26757;DHT22;23848;49.798;10.228;2023-04-24T18:49:46;10.70;99.90
26757;DHT22;23848;49.798;10.228;2023-04-24T18:52:17;10.70;99.90
26757;DHT22;23848;49.798;10.228;2023-04-24T18:55:05;10.60;99.90
26757;DHT22;23848;49.798;10.228;2023-04-24T18:57:43;10.60;99.90
26757;DHT22;23848;49.798;10.228;2023-04-24T19:00:20;10.50;99.90
26757;DHT22;23848;49.798;10.228;2023-04-24T19:02:48;10.40;99.90
26757;DHT22;23848;49.798;10.228;2023-04-24T19:05:37;10.40;99.90